sensor_id;sensor_type;location;lat;lon;timestamp;P1;durP1;ratioP1;P2;durP2;ratioP2
43823;SDS011;29470;53.550;9.926;2023-12-20T00:00:28;10.50;;;1.98;;
43823;SDS011;29470;53.550;9.926;2023-12-20T00:05:32;15.13;;;1.65;;
43823;SDS011;29470;53.550;9.926;2023-12-20T00:10:35;14.88;;;2.53;;
43823;SDS011;29470;53.550;9.926;2023-12-20T00:15:38;13.75;;;1.83;;
43823;SDS011;29470;53.550;9.926;2023-12-20T00:20:43;9.43;;;1.58;;
43823;SDS011;29470;53.550;9.926;2023-12-20T00:25:45;16.02;;;2.40;;
43823;SDS011;29470;53.550;9.926;2023-12-20T00:30:48;13.85;;;2.10;;
43823;SDS011;29470;53.550;9.926;2023-12-20T00:35:53;10.50;;;2.33;;
43823;SDS011;29470;53.550;9.926;2023-12-20T00:40:56;14.38;;;2.25;;
43823;SDS011;29470;53.550;9.926;2023-12-20T00:45:58;14.07;;;2.53;;
43823;SDS011;29470;53.550;9.926;2023-12-20T00:51:04;17.77;;;2.30;;
43823;SDS011;29470;53.550;9.926;2023-12-20T00:56:06;14.20;;;2.22;;
43823;SDS011;29470;53.550;9.926;2023-12-20T01:01:09;8.98;;;1.98;;
43823;SDS011;29470;53.550;9.926;2023-12-20T01:06:14;10.13;;;1.70;;
43823;SDS011;29470;53.550;9.926;2023-12-20T01:11:17;8.82;;;1.20;;
43823;SDS011;29470;53.550;9.926;2023-12-20T01:16:20;9.40;;;1.70;;
43823;SDS011;29470;53.550;9.926;2023-12-20T01:21:24;14.15;;;1.92;;
43823;SDS011;29470;53.550;9.926;2023-12-20T01:26:27;11.73;;;1.90;;
43823;SDS011;29470;53.550;9.926;2023-12-20T01:31:30;15.75;;;1.73;;
43823;SDS011;29470;53.550;9.926;2023-12-20T01:36:34;8.32;;;2.22;;
43823;SDS011;29470;53.550;9.926;2023-12-20T01:41:37;33.47;;;3.42;;
43823;SDS011;29470;53.550;9.926;2023-12-20T01:46:40;13.20;;;1.95;;
43823;SDS011;29470;53.550;9.926;2023-12-20T01:51:44;13.40;;;2.65;;
43823;SDS011;29470;53.550;9.926;2023-12-20T01:56:48;13.55;;;1.80;;
43823;SDS011;29470;53.550;9.926;2023-12-20T02:01:52;12.70;;;1.88;;
43823;SDS011;29470;53.550;9.926;2023-12-20T02:06:56;10.57;;;2.72;;
43823;SDS011;29470;53.550;9.926;2023-12-20T02:12:01;10.60;;;1.73;;
43823;SDS011;29470;53.550;9.926;2023-12-20T02:17:04;11.60;;;2.92;;
43823;SDS011;29470;53.550;9.926;2023-12-20T02:22:09;9.98;;;1.80;;
43823;SDS011;29470;53.550;9.926;2023-12-20T02:27:12;13.82;;;2.10;;
43823;SDS011;29470;53.550;9.926;2023-12-20T02:32:15;16.63;;;2.20;;
43823;SDS011;29470;53.550;9.926;2023-12-20T02:37:20;7.40;;;1.80;;
43823;SDS011;29470;53.550;9.926;2023-12-20T02:42:23;11.35;;;1.73;;
43823;SDS011;29470;53.550;9.926;2023-12-20T02:47:26;14.32;;;2.30;;
43823;SDS011;29470;53.550;9.926;2023-12-20T02:52:32;10.38;;;1.75;;
43823;SDS011;29470;53.550;9.926;2023-12-20T02:57:35;11.15;;;1.80;;
43823;SDS011;29470;53.550;9.926;2023-12-20T03:02:38;9.55;;;2.85;;
43823;SDS011;29470;53.550;9.926;2023-12-20T03:07:42;11.82;;;1.67;;
43823;SDS011;29470;53.550;9.926;2023-12-20T03:12:46;11.63;;;1.70;;
43823;SDS011;29470;53.550;9.926;2023-12-20T03:17:49;12.32;;;2.05;;
43823;SDS011;29470;53.550;9.926;2023-12-20T03:22:53;11.25;;;2.22;;
43823;SDS011;29470;53.550;9.926;2023-12-20T03:27:56;11.77;;;1.63;;
43823;SDS011;29470;53.550;9.926;2023-12-20T03:32:59;10.15;;;1.98;;
43823;SDS011;29470;53.550;9.926;2023-12-20T03:38:03;12.65;;;1.70;;
43823;SDS011;29470;53.550;9.926;2023-12-20T03:43:06;10.20;;;1.63;;
43823;SDS011;29470;53.550;9.926;2023-12-20T03:48:09;10.95;;;1.83;;
43823;SDS011;29470;53.550;9.926;2023-12-20T03:53:13;9.15;;;1.48;;
43823;SDS011;29470;53.550;9.926;2023-12-20T03:58:16;9.68;;;1.77;;
43823;SDS011;29470;53.550;9.926;2023-12-20T04:03:19;10.73;;;1.52;;
43823;SDS011;29470;53.550;9.926;2023-12-20T04:08:24;5.32;;;1.83;;
43823;SDS011;29470;53.550;9.926;2023-12-20T04:13:27;10.52;;;2.08;;
43823;SDS011;29470;53.550;9.926;2023-12-20T04:18:30;9.10;;;1.58;;
43823;SDS011;29470;53.550;9.926;2023-12-20T04:23:34;9.18;;;1.65;;
43823;SDS011;29470;53.550;9.926;2023-12-20T04:28:37;12.40;;;2.03;;
43823;SDS011;29470;53.550;9.926;2023-12-20T04:33:40;7.53;;;1.80;;
43823;SDS011;29470;53.550;9.926;2023-12-20T04:38:45;12.38;;;1.60;;
43823;SDS011;29470;53.550;9.926;2023-12-20T04:43:47;5.30;;;1.45;;
43823;SDS011;29470;53.550;9.926;2023-12-20T04:48:50;12.65;;;2.08;;
43823;SDS011;29470;53.550;9.926;2023-12-20T04:53:54;14.15;;;2.50;;
43823;SDS011;29470;53.550;9.926;2023-12-20T04:58:58;10.82;;;2.13;;
43823;SDS011;29470;53.550;9.926;2023-12-20T05:04:01;9.35;;;1.83;;
43823;SDS011;29470;53.550;9.926;2023-12-20T05:09:05;9.60;;;2.08;;
43823;SDS011;29470;53.550;9.926;2023-12-20T05:14:08;15.98;;;3.35;;
43823;SDS011;29470;53.550;9.926;2023-12-20T05:19:11;8.18;;;1.75;;
43823;SDS011;29470;53.550;9.926;2023-12-20T05:24:16;14.98;;;2.25;;
43823;SDS011;29470;53.550;9.926;2023-12-20T05:29:19;12.00;;;2.33;;
43823;SDS011;29470;53.550;9.926;2023-12-20T05:34:22;9.73;;;2.13;;
43823;SDS011;29470;53.550;9.926;2023-12-20T05:39:27;7.88;;;1.98;;
43823;SDS011;29470;53.550;9.926;2023-12-20T05:44:29;12.40;;;2.85;;
43823;SDS011;29470;53.550;9.926;2023-12-20T05:49:32;11.07;;;2.40;;
43823;SDS011;29470;53.550;9.926;2023-12-20T05:54:37;8.63;;;2.03;;
43823;SDS011;29470;53.550;9.926;2023-12-20T05:59:40;8.40;;;2.10;;
43823;SDS011;29470;53.550;9.926;2023-12-20T06:04:42;13.65;;;2.92;;
43823;SDS011;29470;53.550;9.926;2023-12-20T06:09:47;14.57;;;2.63;;
43823;SDS011;29470;53.550;9.926;2023-12-20T06:14:50;12.55;;;2.42;;
43823;SDS011;29470;53.550;9.926;2023-12-20T06:19:53;14.63;;;2.30;;
43823;SDS011;29470;53.550;9.926;2023-12-20T06:24:57;9.18;;;2.95;;
43823;SDS011;29470;53.550;9.926;2023-12-20T06:30:00;12.15;;;2.08;;
43823;SDS011;29470;53.550;9.926;2023-12-20T06:35:03;13.32;;;2.80;;
43823;SDS011;29470;53.550;9.926;2023-12-20T06:40:09;13.25;;;2.42;;
43823;SDS011;29470;53.550;9.926;2023-12-20T06:45:18;10.52;;;2.40;;
43823;SDS011;29470;53.550;9.926;2023-12-20T06:50:21;16.05;;;2.85;;
43823;SDS011;29470;53.550;9.926;2023-12-20T06:55:25;12.65;;;2.10;;
43823;SDS011;29470;53.550;9.926;2023-12-20T07:00:28;12.15;;;2.78;;
43823;SDS011;29470;53.550;9.926;2023-12-20T07:05:31;14.70;;;2.30;;
43823;SDS011;29470;53.550;9.926;2023-12-20T07:10:36;19.63;;;2.55;;
43823;SDS011;29470;53.550;9.926;2023-12-20T07:15:39;11.68;;;2.88;;
43823;SDS011;29470;53.550;9.926;2023-12-20T07:20:42;15.93;;;2.45;;
43823;SDS011;29470;53.550;9.926;2023-12-20T07:25:47;15.38;;;3.55;;
43823;SDS011;29470;53.550;9.926;2023-12-20T07:30:50;15.65;;;3.15;;
43823;SDS011;29470;53.550;9.926;2023-12-20T07:35:53;14.93;;;2.40;;
43823;SDS011;29470;53.550;9.926;2023-12-20T07:40:57;15.88;;;3.00;;
43823;SDS011;29470;53.550;9.926;2023-12-20T07:46:03;16.95;;;2.22;;
43823;SDS011;29470;53.550;9.926;2023-12-20T07:51:07;11.98;;;2.65;;
43823;SDS011;29470;53.550;9.926;2023-12-20T07:56:16;19.83;;;3.00;;
43823;SDS011;29470;53.550;9.926;2023-12-20T08:06:23;16.30;;;2.70;;
43823;SDS011;29470;53.550;9.926;2023-12-20T08:11:28;16.05;;;2.42;;
43823;SDS011;29470;53.550;9.926;2023-12-20T08:16:31;17.38;;;2.70;;
43823;SDS011;29470;53.550;9.926;2023-12-20T08:21:34;16.10;;;2.55;;
43823;SDS011;29470;53.550;9.926;2023-12-20T08:26:40;13.75;;;2.92;;
43823;SDS011;29470;53.550;9.926;2023-12-20T08:31:43;17.90;;;3.35;;
43823;SDS011;29470;53.550;9.926;2023-12-20T08:36:48;13.98;;;2.85;;
43823;SDS011;29470;53.550;9.926;2023-12-20T08:41:52;19.35;;;3.38;;
43823;SDS011;29470;53.550;9.926;2023-12-20T08:46:55;14.48;;;2.67;;
43823;SDS011;29470;53.550;9.926;2023-12-20T08:51:59;17.75;;;3.60;;
43823;SDS011;29470;53.550;9.926;2023-12-20T08:57:03;15.88;;;2.83;;
43823;SDS011;29470;53.550;9.926;2023-12-20T09:02:08;10.65;;;2.22;;
43823;SDS011;29470;53.550;9.926;2023-12-20T09:07:20;10.77;;;1.73;;
43823;SDS011;29470;53.550;9.926;2023-12-20T09:12:25;11.07;;;1.88;;
43823;SDS011;29470;53.550;9.926;2023-12-20T09:17:28;10.93;;;2.45;;
43823;SDS011;29470;53.550;9.926;2023-12-20T09:22:34;10.20;;;1.92;;
43823;SDS011;29470;53.550;9.926;2023-12-20T09:27:38;4.25;;;1.30;;
43823;SDS011;29470;53.550;9.926;2023-12-20T09:32:41;5.13;;;1.50;;
43823;SDS011;29470;53.550;9.926;2023-12-20T09:37:47;6.72;;;1.23;;
43823;SDS011;29470;53.550;9.926;2023-12-20T09:42:54;4.65;;;1.00;;
43823;SDS011;29470;53.550;9.926;2023-12-20T09:47:59;2.65;;;0.40;;
43823;SDS011;29470;53.550;9.926;2023-12-20T09:53:05;0.95;;;0.35;;
43823;SDS011;29470;53.550;9.926;2023-12-20T09:58:12;1.13;;;0.43;;
43823;SDS011;29470;53.550;9.926;2023-12-20T10:03:15;2.45;;;0.55;;
43823;SDS011;29470;53.550;9.926;2023-12-20T10:08:21;1.65;;;0.40;;
43823;SDS011;29470;53.550;9.926;2023-12-20T10:13:26;1.27;;;0.40;;
43823;SDS011;29470;53.550;9.926;2023-12-20T10:18:29;1.17;;;0.45;;
43823;SDS011;29470;53.550;9.926;2023-12-20T10:23:39;2.70;;;0.73;;
43823;SDS011;29470;53.550;9.926;2023-12-20T10:28:44;1.90;;;0.50;;
43823;SDS011;29470;53.550;9.926;2023-12-20T10:33:47;2.20;;;0.60;;
43823;SDS011;29470;53.550;9.926;2023-12-20T10:38:50;4.50;;;0.70;;
43823;SDS011;29470;53.550;9.926;2023-12-20T10:43:57;3.67;;;0.80;;
43823;SDS011;29470;53.550;9.926;2023-12-20T10:49:01;4.47;;;0.90;;
43823;SDS011;29470;53.550;9.926;2023-12-20T10:54:05;5.55;;;1.02;;
43823;SDS011;29470;53.550;9.926;2023-12-20T10:59:11;6.82;;;1.00;;
43823;SDS011;29470;53.550;9.926;2023-12-20T11:04:22;4.45;;;1.10;;
43823;SDS011;29470;53.550;9.926;2023-12-20T11:09:31;7.78;;;1.05;;
43823;SDS011;29470;53.550;9.926;2023-12-20T11:14:44;7.55;;;1.00;;
43823;SDS011;29470;53.550;9.926;2023-12-20T11:20:05;7.20;;;1.33;;
43823;SDS011;29470;53.550;9.926;2023-12-20T11:25:12;7.30;;;1.20;;
43823;SDS011;29470;53.550;9.926;2023-12-20T11:30:16;7.80;;;1.13;;
43823;SDS011;29470;53.550;9.926;2023-12-20T11:35:19;6.25;;;1.20;;
43823;SDS011;29470;53.550;9.926;2023-12-20T11:40:25;9.30;;;1.15;;
43823;SDS011;29470;53.550;9.926;2023-12-20T11:45:29;7.63;;;1.38;;
43823;SDS011;29470;53.550;9.926;2023-12-20T11:50:33;21.23;;;3.72;;
43823;SDS011;29470;53.550;9.926;2023-12-20T11:55:36;17.23;;;2.22;;
43823;SDS011;29470;53.550;9.926;2023-12-20T12:00:40;12.32;;;2.35;;
43823;SDS011;29470;53.550;9.926;2023-12-20T12:05:46;11.02;;;1.60;;
43823;SDS011;29470;53.550;9.926;2023-12-20T12:10:50;10.55;;;1.90;;
43823;SDS011;29470;53.550;9.926;2023-12-20T12:15:54;11.80;;;2.78;;
43823;SDS011;29470;53.550;9.926;2023-12-20T12:21:00;7.95;;;1.85;;
43823;SDS011;29470;53.550;9.926;2023-12-20T12:26:13;14.60;;;2.35;;
43823;SDS011;29470;53.550;9.926;2023-12-20T12:31:17;9.68;;;2.00;;
43823;SDS011;29470;53.550;9.926;2023-12-20T12:36:20;12.15;;;1.85;;
43823;SDS011;29470;53.550;9.926;2023-12-20T12:41:23;11.55;;;1.73;;
43823;SDS011;29470;53.550;9.926;2023-12-20T12:46:27;10.15;;;2.03;;
43823;SDS011;29470;53.550;9.926;2023-12-20T12:51:30;8.80;;;2.03;;
43823;SDS011;29470;53.550;9.926;2023-12-20T12:56:33;8.50;;;1.88;;
43823;SDS011;29470;53.550;9.926;2023-12-20T13:01:37;12.98;;;2.42;;
43823;SDS011;29470;53.550;9.926;2023-12-20T13:06:40;7.32;;;1.70;;
43823;SDS011;29470;53.550;9.926;2023-12-20T13:11:43;10.52;;;2.40;;
43823;SDS011;29470;53.550;9.926;2023-12-20T13:16:48;14.13;;;2.45;;
43823;SDS011;29470;53.550;9.926;2023-12-20T13:21:54;15.20;;;2.65;;
43823;SDS011;29470;53.550;9.926;2023-12-20T13:26:57;12.30;;;2.13;;
43823;SDS011;29470;53.550;9.926;2023-12-20T13:32:01;14.00;;;2.10;;
43823;SDS011;29470;53.550;9.926;2023-12-20T13:37:05;18.45;;;2.50;;
43823;SDS011;29470;53.550;9.926;2023-12-20T13:42:08;14.70;;;2.50;;
43823;SDS011;29470;53.550;9.926;2023-12-20T13:47:12;15.80;;;3.25;;
43823;SDS011;29470;53.550;9.926;2023-12-20T13:52:15;16.40;;;2.97;;
43823;SDS011;29470;53.550;9.926;2023-12-20T13:57:18;19.80;;;3.20;;
43823;SDS011;29470;53.550;9.926;2023-12-20T14:02:42;18.88;;;3.53;;
43823;SDS011;29470;53.550;9.926;2023-12-20T14:07:45;28.02;;;3.83;;
43823;SDS011;29470;53.550;9.926;2023-12-20T14:12:49;14.02;;;3.08;;
43823;SDS011;29470;53.550;9.926;2023-12-20T14:17:53;20.10;;;3.65;;
43823;SDS011;29470;53.550;9.926;2023-12-20T14:22:57;20.60;;;4.50;;
43823;SDS011;29470;53.550;9.926;2023-12-20T14:28:00;20.85;;;3.80;;
43823;SDS011;29470;53.550;9.926;2023-12-20T14:33:04;16.05;;;3.92;;
43823;SDS011;29470;53.550;9.926;2023-12-20T14:38:08;9.68;;;3.30;;
43823;SDS011;29470;53.550;9.926;2023-12-20T14:43:11;15.80;;;3.45;;
43823;SDS011;29470;53.550;9.926;2023-12-20T14:48:15;14.38;;;3.13;;
43823;SDS011;29470;53.550;9.926;2023-12-20T14:53:18;18.83;;;3.47;;
43823;SDS011;29470;53.550;9.926;2023-12-20T14:58:24;20.63;;;3.63;;
43823;SDS011;29470;53.550;9.926;2023-12-20T15:03:28;14.15;;;3.20;;
43823;SDS011;29470;53.550;9.926;2023-12-20T15:08:32;12.68;;;2.80;;
43823;SDS011;29470;53.550;9.926;2023-12-20T15:13:35;16.70;;;3.60;;
43823;SDS011;29470;53.550;9.926;2023-12-20T15:18:39;15.00;;;3.40;;
43823;SDS011;29470;53.550;9.926;2023-12-20T15:23:42;12.05;;;2.92;;
43823;SDS011;29470;53.550;9.926;2023-12-20T15:28:54;15.35;;;3.25;;
43823;SDS011;29470;53.550;9.926;2023-12-20T15:33:59;12.93;;;3.08;;
43823;SDS011;29470;53.550;9.926;2023-12-20T15:39:02;14.75;;;2.83;;
43823;SDS011;29470;53.550;9.926;2023-12-20T15:44:05;14.75;;;2.75;;
43823;SDS011;29470;53.550;9.926;2023-12-20T15:49:10;15.70;;;2.80;;
43823;SDS011;29470;53.550;9.926;2023-12-20T15:54:13;16.00;;;2.47;;
43823;SDS011;29470;53.550;9.926;2023-12-20T15:59:16;11.77;;;2.40;;
43823;SDS011;29470;53.550;9.926;2023-12-20T16:04:20;13.77;;;3.72;;
43823;SDS011;29470;53.550;9.926;2023-12-20T16:09:23;18.67;;;2.92;;
43823;SDS011;29470;53.550;9.926;2023-12-20T16:14:26;16.80;;;3.10;;
43823;SDS011;29470;53.550;9.926;2023-12-20T16:19:32;14.60;;;2.53;;
43823;SDS011;29470;53.550;9.926;2023-12-20T16:24:35;15.88;;;2.85;;
43823;SDS011;29470;53.550;9.926;2023-12-20T16:29:38;13.32;;;2.17;;
43823;SDS011;29470;53.550;9.926;2023-12-20T16:34:42;19.27;;;3.00;;
43823;SDS011;29470;53.550;9.926;2023-12-20T16:39:46;17.05;;;2.67;;
43823;SDS011;29470;53.550;9.926;2023-12-20T16:44:49;10.23;;;2.20;;
43823;SDS011;29470;53.550;9.926;2023-12-20T16:49:53;14.80;;;2.72;;
43823;SDS011;29470;53.550;9.926;2023-12-20T16:54:56;9.35;;;2.33;;
43823;SDS011;29470;53.550;9.926;2023-12-20T16:59:59;7.57;;;2.45;;
43823;SDS011;29470;53.550;9.926;2023-12-20T17:05:03;8.65;;;2.35;;
43823;SDS011;29470;53.550;9.926;2023-12-20T17:10:07;10.52;;;2.00;;
43823;SDS011;29470;53.550;9.926;2023-12-20T17:15:10;13.20;;;2.90;;
43823;SDS011;29470;53.550;9.926;2023-12-20T17:20:15;9.90;;;2.78;;
43823;SDS011;29470;53.550;9.926;2023-12-20T17:25:18;11.55;;;2.63;;
43823;SDS011;29470;53.550;9.926;2023-12-20T17:30:21;13.57;;;2.50;;
43823;SDS011;29470;53.550;9.926;2023-12-20T17:35:25;11.57;;;2.85;;
43823;SDS011;29470;53.550;9.926;2023-12-20T17:40:28;12.52;;;3.65;;
43823;SDS011;29470;53.550;9.926;2023-12-20T17:45:31;12.98;;;3.95;;
43823;SDS011;29470;53.550;9.926;2023-12-20T17:50:35;11.85;;;3.05;;
43823;SDS011;29470;53.550;9.926;2023-12-20T17:55:38;13.07;;;3.10;;
43823;SDS011;29470;53.550;9.926;2023-12-20T18:00:41;18.50;;;4.20;;
43823;SDS011;29470;53.550;9.926;2023-12-20T18:05:45;10.30;;;3.63;;
43823;SDS011;29470;53.550;9.926;2023-12-20T18:10:49;14.15;;;3.05;;
43823;SDS011;29470;53.550;9.926;2023-12-20T18:15:52;16.10;;;3.20;;
43823;SDS011;29470;53.550;9.926;2023-12-20T18:20:56;14.13;;;2.75;;
43823;SDS011;29470;53.550;9.926;2023-12-20T18:25:59;19.17;;;5.15;;
43823;SDS011;29470;53.550;9.926;2023-12-20T18:31:02;11.75;;;2.85;;
43823;SDS011;29470;53.550;9.926;2023-12-20T18:36:07;12.57;;;2.42;;
43823;SDS011;29470;53.550;9.926;2023-12-20T18:41:11;10.93;;;2.53;;
43823;SDS011;29470;53.550;9.926;2023-12-20T18:46:15;12.07;;;3.22;;
43823;SDS011;29470;53.550;9.926;2023-12-20T18:51:22;8.38;;;2.30;;
43823;SDS011;29470;53.550;9.926;2023-12-20T18:56:25;12.15;;;2.80;;
43823;SDS011;29470;53.550;9.926;2023-12-20T19:01:30;9.65;;;2.72;;
43823;SDS011;29470;53.550;9.926;2023-12-20T19:06:41;9.45;;;2.50;;
43823;SDS011;29470;53.550;9.926;2023-12-20T19:11:51;10.15;;;2.20;;
43823;SDS011;29470;53.550;9.926;2023-12-20T19:16:54;8.23;;;1.85;;
43823;SDS011;29470;53.550;9.926;2023-12-20T19:27:07;11.05;;;2.80;;
43823;SDS011;29470;53.550;9.926;2023-12-20T19:32:10;6.00;;;1.77;;
43823;SDS011;29470;53.550;9.926;2023-12-20T19:37:15;6.68;;;2.42;;
43823;SDS011;29470;53.550;9.926;2023-12-20T19:42:20;6.75;;;2.17;;
43823;SDS011;29470;53.550;9.926;2023-12-20T19:47:25;11.60;;;2.92;;
43823;SDS011;29470;53.550;9.926;2023-12-20T19:52:29;11.30;;;2.63;;
43823;SDS011;29470;53.550;9.926;2023-12-20T19:57:32;13.23;;;3.38;;
43823;SDS011;29470;53.550;9.926;2023-12-20T20:02:35;11.40;;;2.35;;
43823;SDS011;29470;53.550;9.926;2023-12-20T20:07:40;6.00;;;2.25;;
43823;SDS011;29470;53.550;9.926;2023-12-20T20:12:43;11.25;;;3.25;;
43823;SDS011;29470;53.550;9.926;2023-12-20T20:17:57;7.60;;;2.20;;
43823;SDS011;29470;53.550;9.926;2023-12-20T20:23:24;11.68;;;2.40;;
43823;SDS011;29470;53.550;9.926;2023-12-20T20:28:27;6.25;;;2.10;;
43823;SDS011;29470;53.550;9.926;2023-12-20T20:33:30;6.95;;;2.70;;
43823;SDS011;29470;53.550;9.926;2023-12-20T20:38:35;6.85;;;3.50;;
43823;SDS011;29470;53.550;9.926;2023-12-20T20:43:38;10.75;;;3.70;;
43823;SDS011;29470;53.550;9.926;2023-12-20T20:48:41;13.25;;;4.32;;
43823;SDS011;29470;53.550;9.926;2023-12-20T20:53:53;10.75;;;3.60;;
43823;SDS011;29470;53.550;9.926;2023-12-20T20:59:12;7.43;;;3.33;;
43823;SDS011;29470;53.550;9.926;2023-12-20T21:04:15;11.32;;;4.57;;
43823;SDS011;29470;53.550;9.926;2023-12-20T21:09:20;9.77;;;4.50;;
43823;SDS011;29470;53.550;9.926;2023-12-20T21:14:22;10.93;;;4.10;;
43823;SDS011;29470;53.550;9.926;2023-12-20T21:19:25;8.10;;;3.33;;
43823;SDS011;29470;53.550;9.926;2023-12-20T21:24:30;8.10;;;3.83;;
43823;SDS011;29470;53.550;9.926;2023-12-20T21:29:32;8.48;;;4.05;;
43823;SDS011;29470;53.550;9.926;2023-12-20T21:34:36;7.45;;;4.10;;
43823;SDS011;29470;53.550;9.926;2023-12-20T21:39:40;9.82;;;4.47;;
43823;SDS011;29470;53.550;9.926;2023-12-20T21:44:43;11.57;;;6.15;;
43823;SDS011;29470;53.550;9.926;2023-12-20T21:49:46;9.05;;;4.53;;
43823;SDS011;29470;53.550;9.926;2023-12-20T21:54:50;6.93;;;4.40;;
43823;SDS011;29470;53.550;9.926;2023-12-20T21:59:53;7.63;;;4.05;;
43823;SDS011;29470;53.550;9.926;2023-12-20T22:04:56;8.05;;;3.53;;
43823;SDS011;29470;53.550;9.926;2023-12-20T22:10:02;6.55;;;3.45;;
43823;SDS011;29470;53.550;9.926;2023-12-20T22:15:07;6.55;;;3.80;;
43823;SDS011;29470;53.550;9.926;2023-12-20T22:20:10;7.75;;;4.30;;
43823;SDS011;29470;53.550;9.926;2023-12-20T22:25:16;7.03;;;4.40;;
43823;SDS011;29470;53.550;9.926;2023-12-20T22:30:19;9.20;;;4.78;;
43823;SDS011;29470;53.550;9.926;2023-12-20T22:35:22;7.32;;;3.95;;
43823;SDS011;29470;53.550;9.926;2023-12-20T22:40:26;8.05;;;4.13;;
43823;SDS011;29470;53.550;9.926;2023-12-20T22:45:29;7.97;;;4.43;;
43823;SDS011;29470;53.550;9.926;2023-12-20T22:50:33;7.32;;;4.05;;
43823;SDS011;29470;53.550;9.926;2023-12-20T22:55:38;6.57;;;3.85;;
43823;SDS011;29470;53.550;9.926;2023-12-20T23:00:42;5.85;;;3.33;;
43823;SDS011;29470;53.550;9.926;2023-12-20T23:05:45;5.10;;;2.80;;
43823;SDS011;29470;53.550;9.926;2023-12-20T23:11:28;4.82;;;2.50;;
43823;SDS011;29470;53.550;9.926;2023-12-20T23:16:31;3.55;;;1.98;;
43823;SDS011;29470;53.550;9.926;2023-12-20T23:21:34;5.68;;;2.22;;
43823;SDS011;29470;53.550;9.926;2023-12-20T23:26:38;5.07;;;2.28;;
43823;SDS011;29470;53.550;9.926;2023-12-20T23:31:41;3.88;;;2.13;;
43823;SDS011;29470;53.550;9.926;2023-12-20T23:36:44;5.95;;;2.15;;
43823;SDS011;29470;53.550;9.926;2023-12-20T23:41:48;8.57;;;2.50;;
43823;SDS011;29470;53.550;9.926;2023-12-20T23:46:51;3.70;;;1.70;;
43823;SDS011;29470;53.550;9.926;2023-12-20T23:51:54;7.63;;;2.20;;
43823;SDS011;29470;53.550;9.926;2023-12-20T23:56:58;11.75;;;2.80;;
